Time;durP1;ratioP1;P1;durP2;ratioP2;P2;SDS_P1;SDS_P2;PMS_P1;PMS_P2;Temp;Humidity;BMP_temperature;BMP_pressure;BME280_temperature;BME280_humidity;BME280_pressure;Samples;Min_cycle;Max_cycle;Signal;HPM_P1;HPM_P2
2024/03/19 00:01:39;;;;;;;15.77;5.68;;;;;;;14.93;69.78;101786.91;4952666;28;20047;-45
2024/03/19 00:04:05;;;;;;;19.08;5.90;;;;;;;14.88;69.76;101786.84;4950920;28;20074;-43
2024/03/19 00:06:31;;;;;;;15.88;5.93;;;;;;;14.84;69.81;101787.69;4946311;28;20406;-41
2024/03/19 00:08:56;;;;;;;16.45;6.60;;;;;;;14.89;69.56;101782.47;4946872;28;20512;-50
2024/03/19 00:11:22;;;;;;;16.30;6.30;;;;;;;14.95;69.25;101782.53;4947120;28;20047;-46
2024/03/19 00:13:48;;;;;;;15.57;6.30;;;;;;;14.90;69.45;101777.25;4949104;28;20057;-43
2024/03/19 00:16:14;;;;;;;16.92;6.32;;;;;;;14.95;69.32;101779.91;4948202;28;20051;-45
2024/03/19 00:18:39;;;;;;;18.40;6.82;;;;;;;14.92;69.65;101780.78;4946380;28;20085;-47
2024/03/19 00:21:04;;;;;;;15.52;6.88;;;;;;;14.90;69.58;101777.25;4945939;28;20046;-46
2024/03/19 00:23:29;;;;;;;14.43;7.03;;;;;;;14.86;69.20;101778.09;4946915;28;20418;-47
2024/03/19 00:25:55;;;;;;;18.88;7.35;;;;;;;14.96;69.36;101769.41;4948884;28;20031;-41
2024/03/19 00:28:20;;;;;;;20.10;7.32;;;;;;;14.95;69.19;101766.78;5017137;23;20572;-42
2024/03/19 00:30:45;;;;;;;21.88;7.90;;;;;;;15.07;69.04;101776.50;5012439;28;20052;-42
2024/03/19 00:33:11;;;;;;;19.42;7.07;;;;;;;15.11;69.01;101773.94;5010595;28;20037;-42
2024/03/19 00:35:44;;;;;;;16.27;7.10;;;;;;;15.14;68.75;101765.19;5009881;28;20124;-44
2024/03/19 00:38:10;;;;;;;18.35;7.30;;;;;;;15.14;68.82;101767.81;5010464;28;20034;-43
2024/03/19 00:40:35;;;;;;;17.88;7.18;;;;;;;15.18;68.77;101775.78;5008238;28;20093;-47
2024/03/19 00:43:03;;;;;;;18.27;6.93;;;;;;;15.23;68.46;101774.06;4990201;28;20034;-42
2024/03/19 00:45:29;;;;;;;16.98;6.80;;;;;;;15.21;68.21;101774.91;4990507;28;20516;-42
2024/03/19 00:47:55;;;;;;;19.15;7.10;;;;;;;15.23;68.38;101762.66;4990178;28;20034;-44
2024/03/19 00:50:20;;;;;;;19.15;7.32;;;;;;;15.25;68.26;101767.03;4990681;28;20117;-45
2024/03/19 00:52:46;;;;;;;15.55;6.95;;;;;;;15.26;68.43;101763.56;4989800;28;20130;-43
2024/03/19 00:55:11;;;;;;;17.48;7.15;;;;;;;15.28;68.03;101761.84;4991206;28;20030;-44
2024/03/19 00:57:36;;;;;;;17.33;6.95;;;;;;;15.33;67.93;101765.38;4990812;28;20504;-44
2024/03/19 01:00:10;;;;;;;16.67;7.00;;;;;;;15.31;67.94;101764.47;4990403;28;20206;-42
2024/03/19 01:02:40;;;;;;;17.67;7.00;;;;;;;15.31;67.95;101759.22;4989728;28;20566;-42
2024/03/19 01:05:11;;;;;;;13.75;6.57;;;;;;;15.36;67.74;101754.03;4990105;28;20121;-42
2024/03/19 01:07:38;;;;;;;14.65;7.03;;;;;;;15.22;68.02;101759.16;4989826;28;20049;-43
2024/03/19 01:10:04;;;;;;;12.98;6.63;;;;;;;15.30;67.96;101752.22;4990400;28;20030;-45
2024/03/19 01:12:29;;;;;;;13.25;6.68;;;;;;;15.36;67.81;101756.66;4990049;28;20039;-44
2024/03/19 01:14:55;;;;;;;14.52;7.03;;;;;;;15.40;67.54;101755.78;4981729;28;20141;-43
2024/03/19 01:17:21;;;;;;;13.07;6.85;;;;;;;15.40;67.48;101758.41;4990198;28;20410;-41
2024/03/19 01:19:46;;;;;;;14.55;6.90;;;;;;;15.45;67.36;101761.97;4989655;28;20045;-40
2024/03/19 01:22:12;;;;;;;14.13;6.47;;;;;;;15.46;67.15;101758.47;4989993;28;20030;-43
2024/03/19 01:24:37;;;;;;;11.95;6.95;;;;;;;15.47;67.31;101761.97;5003764;28;20444;-39
2024/03/19 01:27:04;;;;;;;13.98;7.00;;;;;;;15.40;67.35;101764.56;5009590;28;20069;-41
2024/03/19 01:29:30;;;;;;;15.40;6.93;;;;;;;15.47;67.32;101757.59;5009517;28;20030;-47
2024/03/19 01:31:55;;;;;;;14.05;6.95;;;;;;;15.50;67.30;101754.97;5009872;28;20041;-43
2024/03/19 01:34:20;;;;;;;12.70;6.63;;;;;;;15.43;67.73;101756.69;5009517;28;20026;-41
2024/03/19 01:36:46;;;;;;;15.88;7.35;;;;;;;15.26;68.13;101757.41;5009238;28;20038;-42
2024/03/19 01:39:11;;;;;;;14.73;7.10;;;;;;;15.43;67.64;101753.16;5009825;28;20033;-42
2024/03/19 01:41:36;;;;;;;15.60;7.20;;;;;;;15.53;67.17;101764.69;5009122;28;20045;-44
2024/03/19 01:44:02;;;;;;;14.80;7.20;;;;;;;15.53;67.11;101762.06;5009262;28;20041;-38
2024/03/19 01:46:28;;;;;;;16.20;7.00;;;;;;;15.34;67.76;101761.00;5009730;28;20022;-41
2024/03/19 01:52:15;;;;;;;13.75;6.88;;;;;;;15.51;67.36;101755.88;5011133;28;20092;-43
2024/03/19 01:54:41;;;;;;;14.27;6.63;;;;;;;15.47;67.44;101754.09;5012343;28;20133;-44
2024/03/19 01:57:06;;;;;;;12.55;6.70;;;;;;;15.46;67.29;101761.09;5013369;28;20248;-41
2024/03/19 01:59:32;;;;;;;13.00;6.07;;;;;;;15.39;67.53;101754.91;5013404;28;20042;-41
2024/03/19 02:01:57;;;;;;;16.55;6.38;;;;;;;15.23;68.29;101750.41;5015099;28;20034;-44
2024/03/19 02:04:23;;;;;;;17.85;5.80;;;;;;;15.21;68.30;101753.88;5015330;28;20044;-43
2024/03/19 02:06:48;;;;;;;16.10;6.10;;;;;;;15.13;68.28;101752.91;5013974;28;20034;-40
2024/03/19 02:09:13;;;;;;;12.05;5.72;;;;;;;15.09;68.69;101759.03;5013114;28;20034;-42
2024/03/19 02:11:39;;;;;;;10.75;4.93;;;;;;;15.19;68.23;101759.13;5012810;28;20038;-43
2024/03/19 02:14:05;;;;;;;12.75;5.03;;;;;;;15.14;68.63;101760.81;5012825;28;20121;-46
2024/03/19 02:16:31;;;;;;;9.80;4.93;;;;;;;15.18;68.00;101749.50;5012481;28;20034;-41
2024/03/19 02:19:03;;;;;;;16.35;5.65;;;;;;;14.90;69.45;101744.84;5012780;28;20036;-41
2024/03/19 02:21:29;;;;;;;13.38;4.95;;;;;;;15.02;69.45;101743.22;5012963;28;20516;-42
2024/03/19 02:23:58;;;;;;;13.95;5.00;;;;;;;14.99;69.16;101748.47;5011967;28;20030;-42
2024/03/19 02:26:29;;;;;;;11.55;4.68;;;;;;;15.03;69.08;101744.97;5012760;28;20080;-40
2024/03/19 02:28:55;;;;;;;11.00;4.40;;;;;;;15.17;68.51;101737.22;5012608;28;20030;-43
2024/03/19 02:31:24;;;;;;;10.90;4.40;;;;;;;15.09;68.73;101738.91;5013024;28;20116;-47
2024/03/19 02:33:50;;;;;;;10.05;4.45;;;;;;;14.96;69.74;101739.66;5013096;28;20108;-42
2024/03/19 02:36:15;;;;;;;9.20;4.35;;;;;;;14.97;69.47;101737.06;5013317;28;20118;-44
2024/03/19 02:38:41;;;;;;;13.70;4.53;;;;;;;15.01;69.26;101740.56;5014101;28;20033;-42
2024/03/19 02:41:08;;;;;;;12.60;4.13;;;;;;;15.05;69.51;101734.50;5014086;28;20042;-40
2024/03/19 02:43:33;;;;;;;11.30;4.25;;;;;;;15.13;68.85;101735.41;5012118;28;20093;-41
2024/03/19 02:45:59;;;;;;;9.82;3.30;;;;;;;15.15;68.58;101730.19;5015611;28;20093;-42
2024/03/19 02:48:24;;;;;;;10.50;3.55;;;;;;;15.17;68.39;101734.59;5015694;28;20037;-42
2024/03/19 02:50:49;;;;;;;11.68;3.38;;;;;;;15.06;68.84;101725.75;5014534;28;20476;-42
2024/03/19 02:53:18;;;;;;;8.32;3.30;;;;;;;15.03;68.66;101723.09;5013717;28;20121;-44
2024/03/19 02:55:46;;;;;;;12.90;3.70;;;;;;;14.92;69.02;101725.63;5012802;28;20034;-39
2024/03/19 02:58:11;;;;;;;7.57;3.30;;;;;;;14.89;69.07;101722.06;5013930;28;20471;-42
2024/03/19 03:00:37;;;;;;;8.10;3.22;;;;;;;14.88;68.81;101721.19;5013122;28;20038;-41
2024/03/19 03:03:02;;;;;;;11.63;3.30;;;;;;;14.72;69.39;101723.66;5012190;28;20041;-41
2024/03/19 03:05:28;;;;;;;10.02;3.22;;;;;;;14.77;69.58;101725.47;5013481;28;20022;-42
2024/03/19 03:07:53;;;;;;;11.00;3.47;;;;;;;14.72;69.52;101716.69;5013523;28;20034;-41
2024/03/19 03:10:18;;;;;;;12.70;3.70;;;;;;;14.72;69.50;101721.94;5014355;28;20026;-42
2024/03/19 03:12:44;;;;;;;8.27;3.28;;;;;;;14.89;69.36;101729.94;5013558;28;20084;-40
2024/03/19 03:15:09;;;;;;;9.70;3.83;;;;;;;14.83;70.06;101730.78;5014291;28;20030;-41
2024/03/19 03:17:35;;;;;;;8.55;3.65;;;;;;;14.88;70.29;101728.22;5014013;28;20030;-44
2024/03/19 03:20:01;;;;;;;9.75;3.80;;;;;;;15.04;69.60;101732.72;5014950;28;20034;-41
2024/03/19 03:22:26;;;;;;;8.55;3.60;;;;;;;15.09;69.55;101744.16;5013122;28;20455;-43
2024/03/19 03:24:51;;;;;;;10.00;3.85;;;;;;;15.02;69.87;101735.34;5012978;28;20487;-43
2024/03/19 03:27:17;;;;;;;8.88;3.90;;;;;;;15.07;69.89;101740.63;5012800;28;20041;-41
2024/03/19 03:29:43;;;;;;;11.60;4.20;;;;;;;15.11;69.55;101742.44;5012832;28;20033;-42
2024/03/19 03:32:09;;;;;;;8.43;3.67;;;;;;;15.23;69.21;101739.03;5012042;28;20030;-41
2024/03/19 03:34:35;;;;;;;13.73;4.30;;;;;;;15.09;69.26;101741.53;5012960;28;20034;-42
2024/03/19 03:37:02;;;;;;;12.27;4.25;;;;;;;15.22;68.69;101743.41;5012297;28;20034;-40
2024/03/19 03:39:27;;;;;;;10.38;4.30;;;;;;;15.27;68.79;101746.06;5013313;28;20037;-42
2024/03/19 03:41:52;;;;;;;10.48;3.65;;;;;;;15.23;68.99;101753.03;5011247;28;20079;-41
2024/03/19 03:44:18;;;;;;;9.75;4.20;;;;;;;15.26;68.88;101752.16;5012012;28;20168;-43
2024/03/19 03:46:43;;;;;;;10.75;4.18;;;;;;;15.21;68.81;101753.88;5010772;28;20124;-40
2024/03/19 03:49:08;;;;;;;10.98;4.43;;;;;;;15.20;68.73;101755.63;5010246;28;20109;-41
2024/03/19 03:51:34;;;;;;;10.52;4.40;;;;;;;15.32;68.77;101763.59;5010799;28;20420;-42
2024/03/19 03:53:59;;;;;;;10.90;4.35;;;;;;;15.40;68.36;101756.69;5010597;28;20038;-42
2024/03/19 03:56:24;;;;;;;10.23;4.32;;;;;;;15.42;68.07;101759.31;5010926;28;20116;-41
2024/03/19 03:58:50;;;;;;;11.23;5.15;;;;;;;15.25;68.74;101751.28;5010870;28;20026;-41
2024/03/19 04:01:15;;;;;;;9.18;4.72;;;;;;;15.42;68.30;101764.56;5011623;28;20041;-42
2024/03/19 04:03:41;;;;;;;12.20;5.20;;;;;;;15.41;67.89;101758.44;5010334;28;20489;-43
2024/03/19 04:06:06;;;;;;;15.15;5.00;;;;;;;15.40;68.11;101758.41;5011116;28;20060;-43
2024/03/19 04:08:31;;;;;;;13.13;5.60;;;;;;;15.44;67.94;101750.56;5010592;28;20169;-41
2024/03/19 04:10:57;;;;;;;13.05;5.80;;;;;;;15.31;68.61;101767.09;5012178;28;20141;-43
2024/03/19 04:13:22;;;;;;;14.70;5.60;;;;;;;15.46;67.93;101760.22;5012073;28;20168;-41
2024/03/19 04:15:49;;;;;;;14.18;5.65;;;;;;;15.42;68.14;101760.22;5010094;28;20057;-42
2024/03/19 04:18:15;;;;;;;11.07;5.53;;;;;;;15.47;67.83;101767.22;5011030;28;20037;-44
2024/03/19 04:20:41;;;;;;;12.30;6.00;;;;;;;15.37;68.03;101767.16;5010411;28;20045;-44
2024/03/19 04:23:07;;;;;;;13.95;5.85;;;;;;;15.42;67.87;101770.72;5009973;28;20046;-41
2024/03/19 04:25:32;;;;;;;12.23;5.63;;;;;;;15.42;67.81;101767.22;5009962;28;20734;-41
2024/03/19 04:27:58;;;;;;;12.02;5.85;;;;;;;15.37;68.05;101766.25;5010640;28;20038;-41
2024/03/19 04:30:23;;;;;;;11.57;5.85;;;;;;;15.37;68.05;101772.41;5010916;28;20118;-41
2024/03/19 04:32:48;;;;;;;11.38;5.75;;;;;;;15.40;68.05;101772.44;5009498;28;20040;-42
2024/03/19 04:35:14;;;;;;;12.80;5.80;;;;;;;15.41;68.03;101766.31;5010286;28;20038;-43
2024/03/19 04:37:40;;;;;;;12.57;5.10;;;;;;;15.40;67.69;101774.19;5009814;28;20195;-42
2024/03/19 04:40:07;;;;;;;11.07;5.20;;;;;;;15.41;68.14;101770.69;5010338;28;20494;-43
2024/03/19 04:42:32;;;;;;;15.10;5.20;;;;;;;15.30;68.15;101768.00;5009785;28;20088;-42
2024/03/19 04:44:57;;;;;;;11.63;5.38;;;;;;;15.36;68.19;101768.03;5010277;28;20026;-41
2024/03/19 04:47:23;;;;;;;10.70;4.90;;;;;;;15.44;68.08;101773.34;5010360;28;20479;-42
2024/03/19 04:49:48;;;;;;;12.88;4.90;;;;;;;15.43;68.21;101774.19;5009894;28;20048;-43
2024/03/19 04:52:13;;;;;;;11.10;4.85;;;;;;;15.26;68.28;101771.44;5009782;28;20029;-40
2024/03/19 04:54:39;;;;;;;11.77;4.60;;;;;;;15.48;67.75;101783.03;5009468;28;20038;-41
2024/03/19 04:57:04;;;;;;;10.80;4.40;;;;;;;15.47;67.77;101780.38;5010300;28;20037;-43
2024/03/19 04:59:30;;;;;;;9.93;4.43;;;;;;;15.47;67.82;101773.38;5009914;28;20469;-49
2024/03/19 05:01:55;;;;;;;11.60;4.70;;;;;;;15.44;67.87;101778.59;5011101;28;20041;-46
2024/03/19 05:04:21;;;;;;;11.77;4.70;;;;;;;15.49;67.78;101768.97;5013262;28;20036;-42
2024/03/19 05:06:46;;;;;;;12.80;4.40;;;;;;;15.55;67.60;101774.34;5013581;28;20038;-41
2024/03/19 05:09:14;;;;;;;11.65;4.72;;;;;;;15.55;67.46;101768.22;5018584;28;20033;-44
2024/03/19 05:11:40;;;;;;;8.40;4.32;;;;;;;15.52;67.41;101769.06;5019692;28;20041;-45
2024/03/19 05:14:05;;;;;;;9.43;4.40;;;;;;;15.54;67.32;101762.06;5011906;28;20030;-42
2024/03/19 05:16:30;;;;;;;11.60;4.30;;;;;;;15.53;67.39;101765.56;5010072;28;20128;-40
2024/03/19 05:18:56;;;;;;;9.32;3.85;;;;;;;15.55;67.50;101762.97;5010470;28;20057;-41
2024/03/19 05:21:21;;;;;;;7.13;3.63;;;;;;;15.57;67.21;101763.81;5010304;28;20409;-41
2024/03/19 05:23:47;;;;;;;9.73;4.00;;;;;;;15.52;67.28;101769.06;5008946;28;20049;-43
2024/03/19 05:26:12;;;;;;;10.30;3.80;;;;;;;15.52;67.25;101763.81;5010287;28;20076;-41
2024/03/19 05:28:37;;;;;;;11.30;4.15;;;;;;;15.57;67.07;101766.44;5013717;28;20461;-43
2024/03/19 05:31:21;;;;;;;8.18;3.60;;;;;;;15.61;66.94;101773.50;5014114;28;20448;-42
2024/03/19 05:33:49;;;;;;;9.30;3.72;;;;;;;15.46;66.84;101773.34;5013110;28;20046;-43
2024/03/19 05:36:14;;;;;;;9.10;3.63;;;;;;;15.49;66.85;101768.97;5014119;28;20092;-43
2024/03/19 05:38:39;;;;;;;8.98;3.50;;;;;;;15.61;66.42;101773.50;5015093;28;20042;-41
2024/03/19 05:41:05;;;;;;;11.88;3.83;;;;;;;15.60;66.64;101774.38;5014213;28;20026;-42
2024/03/19 05:43:30;;;;;;;9.98;3.70;;;;;;;15.67;66.56;101778.81;5012831;28;20531;-44
2024/03/19 05:45:56;;;;;;;9.52;3.75;;;;;;;15.63;66.25;101779.63;5013746;28;20038;-42
2024/03/19 05:48:21;;;;;;;11.20;4.15;;;;;;;15.61;66.38;101773.50;5012258;28;20105;-44
2024/03/19 05:50:46;;;;;;;8.32;3.70;;;;;;;15.58;66.31;101781.34;5013193;28;20443;-43
2024/03/19 05:53:12;;;;;;;13.35;3.60;;;;;;;15.65;66.14;101781.44;5013123;28;20041;-41
2024/03/19 05:55:37;;;;;;;10.43;3.80;;;;;;;15.46;66.20;101786.50;5012703;28;20060;-42
2024/03/19 05:58:03;;;;;;;10.43;3.80;;;;;;;15.33;67.19;101796.91;5013391;28;20389;-41
2024/03/19 06:00:28;;;;;;;8.38;3.60;;;;;;;15.57;66.14;101788.38;5013115;28;20038;-42
2024/03/19 06:02:53;;;;;;;9.48;3.83;;;;;;;15.61;66.15;101790.16;5012240;28;20349;-42
2024/03/19 06:05:19;;;;;;;9.88;4.10;;;;;;;15.69;65.67;101788.44;5012933;28;20117;-43
2024/03/19 06:07:44;;;;;;;9.57;4.10;;;;;;;15.69;65.71;101788.44;5012745;28;20099;-44
2024/03/19 06:10:09;;;;;;;10.65;4.03;;;;;;;15.80;65.50;101776.25;5013499;28;20030;-44
2024/03/19 06:12:35;;;;;;;10.10;4.28;;;;;;;15.86;65.32;101792.97;5012757;28;20658;-42
2024/03/19 06:15:02;;;;;;;8.55;4.30;;;;;;;15.71;65.56;101786.72;5012844;28;20034;-43
2024/03/19 06:17:27;;;;;;;10.85;4.13;;;;;;;15.67;66.19;101789.34;5012734;28;20033;-43
2024/03/19 06:19:52;;;;;;;9.98;3.78;;;;;;;15.69;65.77;101790.19;5012554;28;20662;-41
2024/03/19 06:22:18;;;;;;;13.10;4.30;;;;;;;15.87;65.19;101792.06;5012837;28;20381;-42
2024/03/19 06:24:43;;;;;;;9.70;4.28;;;;;;;15.92;64.97;101785.13;5012163;28;20069;-43
2024/03/19 06:27:08;;;;;;;10.25;4.38;;;;;;;15.93;65.11;101790.34;5035344;23;20038;-41
2024/03/19 06:29:34;;;;;;;8.65;4.10;;;;;;;15.97;64.79;101799.16;4985902;28;20053;-43
2024/03/19 06:31:59;;;;;;;9.07;4.32;;;;;;;15.97;64.79;101789.53;4988541;28;20124;-41
2024/03/19 06:34:24;;;;;;;13.70;4.50;;;;;;;15.96;64.81;101797.41;4988723;28;20039;-45
2024/03/19 06:36:52;;;;;;;14.00;4.47;;;;;;;16.01;64.50;101799.19;4988434;28;20042;-40
2024/03/19 06:39:17;;;;;;;12.27;4.75;;;;;;;15.97;64.64;101800.03;4971017;28;20129;-43
2024/03/19 06:41:42;;;;;;;11.50;5.00;;;;;;;16.08;64.28;101808.88;4969613;28;20169;-43
2024/03/19 06:44:08;;;;;;;12.85;4.80;;;;;;;16.13;64.39;101801.00;4970882;28;20527;-41
2024/03/19 06:46:33;;;;;;;9.45;5.03;;;;;;;16.03;64.70;101810.59;4970563;28;20641;-43
2024/03/19 06:48:59;;;;;;;11.23;4.82;;;;;;;16.07;64.09;101808.84;4969260;28;20913;-40
2024/03/19 06:51:24;;;;;;;9.73;4.38;;;;;;;16.18;64.25;101802.78;4969449;28;20394;-41
2024/03/19 06:53:49;;;;;;;12.40;4.90;;;;;;;16.07;64.41;101815.00;4968947;28;20528;-40
2024/03/19 06:56:15;;;;;;;12.02;4.63;;;;;;;16.14;64.60;101810.66;4967114;28;20042;-42
2024/03/19 06:58:43;;;;;;;12.30;4.53;;;;;;;16.32;63.91;101804.59;4967948;28;20047;-45
2024/03/19 07:01:09;;;;;;;10.52;4.60;;;;;;;16.41;63.68;101807.25;4967120;28;20055;-43
2024/03/19 07:03:34;;;;;;;11.65;4.32;;;;;;;16.34;63.48;101809.00;4967825;28;20049;-40
2024/03/19 07:06:01;;;;;;;11.27;4.90;;;;;;;16.52;63.17;101802.94;4968413;28;20125;-42
2024/03/19 07:08:26;;;;;;;10.15;4.75;;;;;;;16.54;62.76;101801.19;4968103;28;20035;-42
2024/03/19 07:10:53;;;;;;;9.93;4.32;;;;;;;16.51;62.83;101796.78;4967486;28;20078;-41
2024/03/19 07:13:19;;;;;;;10.43;4.60;;;;;;;16.43;63.17;101798.50;4967648;28;20042;-44
2024/03/19 07:15:44;;;;;;;10.70;4.60;;;;;;;16.51;62.73;101804.69;4966262;28;20460;-41
2024/03/19 07:18:10;;;;;;;11.00;4.47;;;;;;;16.34;63.00;101797.59;4960645;28;20057;-44
2024/03/19 07:20:36;;;;;;;8.70;3.78;;;;;;;16.33;63.00;101815.16;4967802;28;20038;-43
2024/03/19 07:23:03;;;;;;;10.93;4.20;;;;;;;16.43;62.84;101806.41;4967941;28;20658;-40
2024/03/19 07:25:29;;;;;;;10.13;3.83;;;;;;;16.40;62.68;101808.16;4968643;28;20054;-45
2024/03/19 07:27:54;;;;;;;12.18;4.18;;;;;;;16.38;62.95;101816.03;4968522;28;20078;-43
2024/03/19 07:30:22;;;;;;;11.35;3.88;;;;;;;16.41;62.64;101815.16;4972042;28;20062;-41
2024/03/19 07:32:47;;;;;;;10.75;3.88;;;;;;;16.45;62.65;101812.56;4971318;28;20419;-41
2024/03/19 07:35:13;;;;;;;7.60;3.80;;;;;;;16.53;62.49;101809.94;4969677;28;20039;-42
2024/03/19 07:37:39;;;;;;;8.10;3.67;;;;;;;16.54;62.43;101806.44;4966370;28;20047;-40
2024/03/19 07:40:09;;;;;;;8.25;3.53;;;;;;;16.59;62.07;101805.63;4968089;28;20058;-43
2024/03/19 07:42:35;;;;;;;8.98;3.70;;;;;;;16.60;62.18;101807.38;4965612;28;20436;-41
2024/03/19 07:45:01;;;;;;;8.50;3.28;;;;;;;16.55;61.89;101802.94;4967480;28;20042;-39
2024/03/19 07:47:27;;;;;;;8.70;3.30;;;;;;;16.63;61.83;101811.78;4968165;28;20544;-41
2024/03/19 07:49:52;;;;;;;7.10;3.30;;;;;;;16.55;61.74;101811.72;4966713;28;20118;-42
2024/03/19 07:52:18;;;;;;;11.25;3.22;;;;;;;16.66;61.69;101806.50;4967414;28;20130;-41
2024/03/19 07:54:43;;;;;;;8.50;3.20;;;;;;;16.80;61.30;101811.84;4965822;28;20050;-41
2024/03/19 07:57:09;;;;;;;8.88;3.35;;;;;;;16.66;60.99;101809.16;4968095;28;20145;-41
2024/03/19 07:59:34;;;;;;;9.20;3.20;;;;;;;16.85;60.86;101807.44;4967065;28;20093;-42
2024/03/19 08:02:00;;;;;;;6.50;3.10;;;;;;;16.91;60.73;101812.72;4967079;28;20564;-41
2024/03/19 08:04:25;;;;;;;8.52;3.58;;;;;;;16.98;60.33;101811.88;4967376;28;20102;-41
2024/03/19 08:06:50;;;;;;;8.02;3.28;;;;;;;16.97;60.32;101807.47;4967682;28;20492;-45
2024/03/19 08:09:17;;;;;;;9.20;3.40;;;;;;;17.22;60.05;101811.03;4969336;28;20057;-44
2024/03/19 08:11:42;;;;;;;6.55;3.10;;;;;;;17.32;59.74;101812.81;4969474;28;20053;-40
2024/03/19 08:14:08;;;;;;;9.32;3.30;;;;;;;17.22;59.51;101818.94;4968891;28;20041;-41
2024/03/19 08:16:33;;;;;;;9.38;3.03;;;;;;;17.36;59.05;101810.19;4969085;28;20042;-40
2024/03/19 08:19:00;;;;;;;9.65;3.30;;;;;;;17.38;58.62;101810.19;4969364;28;20531;-40
2024/03/19 08:21:26;;;;;;;9.00;3.00;;;;;;;17.39;58.78;101817.19;4967708;28;20047;-43
2024/03/19 08:23:51;;;;;;;10.82;3.67;;;;;;;17.19;58.33;101824.22;4966579;28;20078;-38
2024/03/19 08:26:17;;;;;;;10.20;3.50;;;;;;;17.27;57.93;101819.81;4964853;28;20049;-42
2024/03/19 08:28:43;;;;;;;9.10;3.40;;;;;;;17.31;58.14;101819.84;4966149;28;20042;-40
2024/03/19 08:31:11;;;;;;;8.93;3.80;;;;;;;17.21;58.35;101815.41;4967136;28;20107;-42
2024/03/19 08:33:37;;;;;;;7.53;3.80;;;;;;;17.29;58.03;101811.03;4966466;28;20042;-40
2024/03/19 08:36:04;;;;;;;9.38;4.20;;;;;;;17.33;57.95;101820.69;4966936;28;20047;-40
2024/03/19 08:38:31;;;;;;;9.88;4.40;;;;;;;17.38;58.04;101826.00;4966172;28;20110;-40
2024/03/19 08:40:58;;;;;;;12.65;4.53;;;;;;;17.56;57.80;101828.63;4967052;28;20368;-39
2024/03/19 08:43:24;;;;;;;10.95;4.20;;;;;;;17.59;57.68;101835.66;4964624;28;20105;-40
2024/03/19 08:45:49;;;;;;;12.45;4.82;;;;;;;17.63;57.27;101829.53;4966142;28;20082;-39
2024/03/19 08:48:15;;;;;;;13.23;5.03;;;;;;;17.76;57.21;101826.88;4966985;28;20038;-40
2024/03/19 08:50:40;;;;;;;8.20;4.60;;;;;;;17.77;56.79;101826.00;4966112;28;20046;-44
2024/03/19 08:53:07;;;;;;;9.25;4.80;;;;;;;17.91;56.37;101828.63;4964843;28;20043;-43
2024/03/19 08:55:35;;;;;;;16.33;5.45;;;;;;;17.39;57.58;101831.25;4966836;28;20106;-43
2024/03/19 08:58:00;;;;;;;11.15;5.10;;;;;;;17.96;56.11;101826.84;4966887;28;20047;-40
2024/03/19 09:00:25;;;;;;;13.40;4.93;;;;;;;18.19;55.78;101829.44;4966777;28;20043;-40
2024/03/19 09:02:51;;;;;;;13.15;5.10;;;;;;;18.44;55.41;101828.47;4967031;28;20035;-40
2024/03/19 09:05:16;;;;;;;12.32;5.28;;;;;;;18.59;54.74;101830.22;4968038;28;20062;-40
2024/03/19 09:07:42;;;;;;;12.20;5.40;;;;;;;18.79;54.36;101838.91;4968454;28;20046;-39
2024/03/19 09:10:09;;;;;;;14.15;5.20;;;;;;;18.95;52.67;101837.09;4968132;28;20034;-39
2024/03/19 09:12:35;;;;;;;11.27;4.93;;;;;;;18.56;53.79;101839.03;4964092;28;20054;-40
2024/03/19 09:15:00;;;;;;;9.40;4.90;;;;;;;18.80;53.57;101832.75;4966543;28;20047;-39
2024/03/19 09:17:26;;;;;;;12.95;5.05;;;;;;;19.11;53.02;101832.56;4966895;28;20425;-42
2024/03/19 09:19:51;;;;;;;11.15;4.90;;;;;;;19.10;52.50;101829.03;4966223;28;20027;-42
2024/03/19 09:22:17;;;;;;;11.40;5.22;;;;;;;19.16;52.35;101836.94;4964554;28;20039;-42
2024/03/19 09:24:42;;;;;;;10.55;5.20;;;;;;;19.16;52.20;101828.13;4965395;28;20041;-40
2024/03/19 09:27:08;;;;;;;13.60;5.15;;;;;;;19.36;51.92;101828.88;4966418;28;20043;-40
2024/03/19 09:29:34;;;;;;;11.32;5.15;;;;;;;19.27;52.06;101829.81;4966646;28;20545;-43
2024/03/19 09:31:59;;;;;;;10.48;4.78;;;;;;;19.31;52.09;101826.28;4967058;28;20042;-41
2024/03/19 09:34:24;;;;;;;12.98;5.13;;;;;;;18.83;53.15;101818.66;4965805;28;20046;-40
2024/03/19 09:36:50;;;;;;;11.98;5.28;;;;;;;19.04;52.79;101815.88;4965329;28;20134;-39
2024/03/19 09:39:15;;;;;;;15.10;5.05;;;;;;;19.09;52.62;101821.16;4966346;28;20171;-39
2024/03/19 09:41:54;;;;;;;11.18;5.18;;;;;;;19.07;52.32;101825.56;4965761;28;20042;-39
2024/03/19 09:44:21;;;;;;;12.55;5.15;;;;;;;19.33;52.06;101824.47;4965811;28;20062;-40
2024/03/19 09:46:47;;;;;;;13.20;5.35;;;;;;;19.12;52.06;101829.03;4965401;28;20042;-41
2024/03/19 09:49:17;;;;;;;11.80;5.18;;;;;;;19.39;52.37;101826.22;4966197;28;20135;-39
2024/03/19 09:51:42;;;;;;;14.73;4.70;;;;;;;19.58;51.92;101832.28;4965354;28;20097;-40
2024/03/19 09:54:12;;;;;;;11.60;4.68;;;;;;;19.66;51.04;101833.06;4968214;28;20047;-39
2024/03/19 09:56:38;;;;;;;13.32;4.90;;;;;;;19.81;50.52;101828.53;4968084;28;20051;-38
2024/03/19 09:59:11;;;;;;;9.30;4.30;;;;;;;18.89;53.21;101832.72;4968944;28;20626;-39
2024/03/19 10:01:38;;;;;;;11.70;4.57;;;;;;;19.40;51.55;101833.22;4968991;28;20765;-41
2024/03/19 10:04:04;;;;;;;11.07;4.25;;;;;;;20.10;51.10;101824.69;4964206;28;20039;-41
2024/03/19 10:06:29;;;;;;;12.73;5.00;;;;;;;19.82;49.90;101832.91;4965699;28;20505;-41
2024/03/19 10:08:55;;;;;;;9.40;4.53;;;;;;;20.33;48.70;101833.28;4965681;28;20085;-43
2024/03/19 10:11:20;;;;;;;14.35;4.60;;;;;;;20.25;49.14;101837.75;4964585;28;20086;-41
2024/03/19 10:13:48;;;;;;;9.82;4.72;;;;;;;20.69;48.71;101839.03;4965053;28;20133;-38
2024/03/19 10:16:14;;;;;;;11.02;4.53;;;;;;;20.55;48.48;101832.13;4969431;28;20038;-41
2024/03/19 10:18:39;;;;;;;9.48;4.47;;;;;;;20.79;47.90;101838.91;4969215;28;20043;-41
2024/03/19 10:21:06;;;;;;;14.25;4.20;;;;;;;20.84;46.91;101836.19;4969371;28;20042;-42
2024/03/19 10:23:32;;;;;;;10.23;4.40;;;;;;;19.47;50.14;101832.34;4967945;28;20059;-41
2024/03/19 10:25:57;;;;;;;13.43;3.95;;;;;;;20.15;49.83;101839.63;4967825;28;20607;-40
2024/03/19 10:28:22;;;;;;;11.20;3.83;;;;;;;20.51;47.68;101833.06;4969457;28;20130;-42
2024/03/19 10:30:48;;;;;;;11.38;4.35;;;;;;;20.22;48.08;101840.44;4968835;28;20145;-40
2024/03/19 10:33:15;;;;;;;11.02;4.05;;;;;;;20.23;48.04;101840.44;4968830;28;20492;-41
2024/03/19 10:35:44;;;;;;;11.10;3.80;;;;;;;20.33;48.29;101843.00;4968114;28;20658;-44
2024/03/19 10:38:14;;;;;;;12.80;3.70;;;;;;;20.40;47.90;101848.22;4969111;28;20076;-41
2024/03/19 10:40:41;;;;;;;9.02;3.50;;;;;;;20.07;48.03;101835.28;4968730;28;20053;-41
2024/03/19 10:43:17;;;;;;;10.50;3.40;;;;;;;19.87;48.19;101843.47;4968457;28;20043;-41
2024/03/19 10:45:45;;;;;;;11.05;3.85;;;;;;;19.50;49.73;101832.31;4968239;28;20027;-41
2024/03/19 10:48:12;;;;;;;8.10;3.13;;;;;;;19.86;49.32;101823.19;4968803;28;20736;-40
2024/03/19 10:50:38;;;;;;;9.55;2.95;;;;;;;19.69;49.56;101825.09;4968379;28;20035;-41
2024/03/19 10:53:09;;;;;;;12.40;3.30;;;;;;;19.56;50.44;101823.47;4968603;28;20054;-41
2024/03/19 10:55:37;;;;;;;10.02;3.20;;;;;;;19.51;50.91;101834.09;4966960;28;20047;-40
2024/03/19 10:58:04;;;;;;;7.63;3.00;;;;;;;19.31;50.88;101828.03;4968650;28;20042;-41
2024/03/19 11:00:30;;;;;;;11.73;3.08;;;;;;;19.31;50.10;101831.56;4968878;28;20046;-39
2024/03/19 11:03:01;;;;;;;9.52;3.13;;;;;;;19.54;49.98;101831.41;4951139;28;20387;-41
2024/03/19 11:05:27;;;;;;;8.13;3.03;;;;;;;19.88;49.26;101826.69;4951957;28;20036;-42
2024/03/19 11:07:56;;;;;;;9.38;3.10;;;;;;;20.14;49.13;101834.34;4951908;28;20173;-40
2024/03/19 11:10:35;;;;;;;7.40;3.05;;;;;;;20.24;48.03;101830.72;4952116;28;20085;-42
2024/03/19 11:13:08;;;;;;;11.30;3.50;;;;;;;20.52;47.46;101826.88;4967591;28;20509;-40
2024/03/19 11:15:40;;;;;;;7.75;3.00;;;;;;;20.56;47.38;101833.00;4966907;28;20108;-39
2024/03/19 11:18:11;;;;;;;10.35;3.40;;;;;;;19.99;48.02;101840.69;4963150;28;20097;-40